createdAt,value
2022-09-25T00:00:21.073Z,9.77
2022-09-25T00:03:07.872Z,10.20
2022-09-25T00:06:01.165Z,8.67
2022-09-25T00:08:48.080Z,8.53
2022-09-25T00:11:37.056Z,8.40
2022-09-25T00:14:23.679Z,8.17
2022-09-25T00:17:10.238Z,8.30
2022-09-25T00:19:56.978Z,8.67
2022-09-25T00:22:43.545Z,7.60
2022-09-25T00:25:29.984Z,7.77
2022-09-25T00:28:18.891Z,7.87
2022-09-25T00:31:06.395Z,7.67
2022-09-25T00:33:53.725Z,7.20
2022-09-25T00:36:40.468Z,7.80
2022-09-25T00:39:27.449Z,6.70
2022-09-25T00:42:14.628Z,6.57
2022-09-25T00:45:04.106Z,6.47
2022-09-25T00:47:56.188Z,6.37
2022-09-25T00:50:49.852Z,6.90
2022-09-25T00:53:40.947Z,5.70
2022-09-25T00:56:29.888Z,6.37
2022-09-25T00:59:20.461Z,6.53
2022-09-25T01:02:14.111Z,6.80
2022-09-25T01:05:03.866Z,6.10
2022-09-25T01:07:52.652Z,6.23
2022-09-25T01:10:39.411Z,6.33
2022-09-25T01:13:26.999Z,6.20
2022-09-25T01:16:18.019Z,6.17
2022-09-25T01:19:16.360Z,6.40
2022-09-25T01:22:11.660Z,6.87
2022-09-25T01:25:12.032Z,6.90
2022-09-25T01:28:19.723Z,5.97
2022-09-25T01:31:17.139Z,5.77
2022-09-25T01:34:13.551Z,5.97
2022-09-25T01:37:04.676Z,6.37
2022-09-25T01:40:01.033Z,5.77
2022-09-25T01:42:53.070Z,5.77
2022-09-25T01:45:44.694Z,5.90
2022-09-25T01:48:34.697Z,5.57
2022-09-25T01:51:25.241Z,5.73
2022-09-25T01:54:15.460Z,5.07
2022-09-25T01:57:10.486Z,4.43
2022-09-25T02:00:02.792Z,4.93
2022-09-25T02:02:55.308Z,5.03
2022-09-25T02:05:47.532Z,4.60
2022-09-25T02:08:44.056Z,4.77
2022-09-25T02:11:35.737Z,3.97
2022-09-25T02:14:25.135Z,4.63
2022-09-25T02:17:34.420Z,3.93
2022-09-25T02:20:34.645Z,3.83
2022-09-25T02:23:25.158Z,3.47
2022-09-25T02:26:20.607Z,3.90
2022-09-25T02:29:08.748Z,3.10
2022-09-25T02:31:59.684Z,3.43
2022-09-25T02:34:46.231Z,2.97
2022-09-25T02:37:32.731Z,3.30
2022-09-25T02:40:22.688Z,3.50
2022-09-25T02:43:18.014Z,3.00
2022-09-25T02:46:11.807Z,2.87
2022-09-25T02:49:04.906Z,3.00
2022-09-25T02:51:58.496Z,2.57
2022-09-25T02:54:49.735Z,2.90
2022-09-25T02:57:47.203Z,2.67
2022-09-25T03:00:36.643Z,3.00
2022-09-25T03:03:25.213Z,2.67
2022-09-25T03:06:12.312Z,2.83
2022-09-25T03:09:00.038Z,2.30
2022-09-25T03:11:47.030Z,2.63
2022-09-25T03:14:35.145Z,2.73
2022-09-25T03:17:23.445Z,2.40
2022-09-25T03:20:10.961Z,2.43
2022-09-25T03:22:57.578Z,2.37
2022-09-25T03:25:49.730Z,2.40
2022-09-25T03:28:37.111Z,2.40
2022-09-25T03:31:24.918Z,2.50
2022-09-25T03:34:12.796Z,2.50
2022-09-25T03:36:59.111Z,2.30
2022-09-25T03:39:45.735Z,2.63
2022-09-25T03:42:32.405Z,3.23
2022-09-25T03:45:18.876Z,2.43
2022-09-25T03:48:06.591Z,2.70
2022-09-25T03:50:53.341Z,2.60
2022-09-25T03:53:41.621Z,2.40
2022-09-25T03:56:29.748Z,3.03
2022-09-25T03:59:16.883Z,2.63
2022-09-25T04:02:03.323Z,2.40
2022-09-25T04:04:52.435Z,2.27
2022-09-25T04:07:39.052Z,2.60
2022-09-25T04:10:25.745Z,2.80
2022-09-25T04:13:12.872Z,2.13
2022-09-25T04:16:01.219Z,2.40
2022-09-25T04:18:48.027Z,2.47
2022-09-25T04:21:36.086Z,2.03
2022-09-25T04:24:48.744Z,2.50
2022-09-25T04:27:35.338Z,2.27
2022-09-25T04:30:22.153Z,2.40
2022-09-25T04:33:27.538Z,2.20
2022-09-25T04:36:14.313Z,2.60
2022-09-25T04:39:02.232Z,2.60
2022-09-25T04:41:48.967Z,5.00
2022-09-25T04:44:35.507Z,4.37
2022-09-25T04:47:21.853Z,3.10
2022-09-25T04:50:09.261Z,2.57
2022-09-25T04:52:57.703Z,2.40
2022-09-25T04:55:47.383Z,2.93
2022-09-25T04:58:33.705Z,2.60
2022-09-25T05:01:21.739Z,2.40
2022-09-25T05:04:09.127Z,3.00
2022-09-25T05:06:55.701Z,3.23
2022-09-25T05:09:42.383Z,2.47
2022-09-25T05:12:30.096Z,2.80
2022-09-25T05:15:16.567Z,3.03
2022-09-25T05:18:04.908Z,2.40
2022-09-25T05:20:53.420Z,2.50
2022-09-25T05:23:39.732Z,2.80
2022-09-25T05:26:26.592Z,2.73
2022-09-25T05:29:14.693Z,2.87
2022-09-25T05:32:01.901Z,2.53
2022-09-25T05:34:48.226Z,2.60
2022-09-25T05:37:35.012Z,2.70
2022-09-25T05:40:23.674Z,2.50
2022-09-25T05:43:10.605Z,2.40
2022-09-25T05:45:58.908Z,2.40
2022-09-25T05:48:45.727Z,2.10
2022-09-25T05:51:32.553Z,2.60
2022-09-25T05:54:19.068Z,2.40
2022-09-25T05:57:05.421Z,2.47
2022-09-25T05:59:51.988Z,2.30
2022-09-25T06:02:39.726Z,2.50
2022-09-25T06:05:26.356Z,2.60
2022-09-25T06:08:12.975Z,2.40
2022-09-25T06:11:00.817Z,2.40
2022-09-25T06:13:54.322Z,2.37
2022-09-25T06:16:41.213Z,2.33
2022-09-25T06:19:29.424Z,2.20
2022-09-25T06:22:15.883Z,2.40
2022-09-25T06:25:02.221Z,3.00
2022-09-25T06:27:48.481Z,2.40
2022-09-25T06:30:38.273Z,2.97
2022-09-25T06:33:25.086Z,3.50
2022-09-25T06:36:12.917Z,3.87
2022-09-25T06:38:59.560Z,2.93
2022-09-25T06:41:46.172Z,3.07
2022-09-25T06:44:32.493Z,2.53
2022-09-25T06:47:22.501Z,2.80
2022-09-25T06:50:12.337Z,2.80
2022-09-25T06:53:00.704Z,2.83
2022-09-25T06:55:47.166Z,3.43
2022-09-25T06:58:34.124Z,2.30
2022-09-25T07:01:20.860Z,2.53
2022-09-25T07:04:06.786Z,2.77
2022-09-25T07:06:56.591Z,3.00
2022-09-25T07:09:44.845Z,2.40
2022-09-25T07:12:34.223Z,2.70
2022-09-25T07:15:20.697Z,2.77
2022-09-25T07:18:07.070Z,2.77
2022-09-25T07:20:54.417Z,2.60
2022-09-25T07:23:42.073Z,2.90
2022-09-25T07:26:33.920Z,2.63
2022-09-25T07:29:20.852Z,2.80
2022-09-25T07:32:07.491Z,3.00
2022-09-25T07:34:53.832Z,2.70
2022-09-25T07:37:40.063Z,3.63
2022-09-25T07:40:27.453Z,2.90
2022-09-25T07:43:15.274Z,2.90
2022-09-25T07:46:02.274Z,2.90
2022-09-25T07:48:49.819Z,3.60
2022-09-25T07:51:36.354Z,2.93
2022-09-25T07:54:22.708Z,2.97
2022-09-25T07:57:09.220Z,2.33
2022-09-25T07:59:56.991Z,2.67
2022-09-25T08:02:43.670Z,2.63
2022-09-25T08:05:30.345Z,2.40
2022-09-25T08:08:17.096Z,2.60
2022-09-25T08:11:04.485Z,2.37
2022-09-25T08:13:51.339Z,2.50
2022-09-25T08:16:39.364Z,2.50
2022-09-25T08:19:27.724Z,2.50
2022-09-25T08:22:14.231Z,2.50
2022-09-25T08:25:02.198Z,2.20
2022-09-25T08:27:48.961Z,2.37
2022-09-25T08:30:35.316Z,2.93
2022-09-25T08:33:23.104Z,2.70
2022-09-25T08:36:10.845Z,2.47
2022-09-25T08:39:00.818Z,1.97
2022-09-25T08:41:50.671Z,2.13
2022-09-25T08:44:52.606Z,2.80
2022-09-25T08:48:06.535Z,2.50
2022-09-25T08:50:54.605Z,2.90
2022-09-25T08:53:43.630Z,2.77
2022-09-25T08:56:32.619Z,3.10
2022-09-25T08:59:26.883Z,3.47
2022-09-25T09:02:16.525Z,3.50
2022-09-25T09:05:03.537Z,3.50
2022-09-25T09:07:58.607Z,3.37
2022-09-25T09:10:48.381Z,3.07
2022-09-25T09:13:42.363Z,3.30
2022-09-25T09:16:35.425Z,3.60
2022-09-25T09:19:22.094Z,3.00
2022-09-25T09:22:11.524Z,3.50
2022-09-25T09:25:05.901Z,3.33
2022-09-25T09:28:08.598Z,2.43
2022-09-25T09:31:03.877Z,2.80
2022-09-25T09:33:58.836Z,2.60
2022-09-25T09:36:51.821Z,2.17
2022-09-25T09:39:43.493Z,2.00
2022-09-25T09:42:42.027Z,2.30
2022-09-25T09:45:36.655Z,2.23
2022-09-25T09:48:32.480Z,2.03
2022-09-25T09:51:29.431Z,1.70
2022-09-25T09:54:22.067Z,1.80
2022-09-25T09:57:17.551Z,1.67
2022-09-25T10:00:08.144Z,1.80
2022-09-25T10:03:00.387Z,1.70
2022-09-25T10:05:49.455Z,1.90
2022-09-25T10:08:36.614Z,1.90
2022-09-25T10:11:23.759Z,1.30
2022-09-25T10:14:15.704Z,1.30
2022-09-25T10:17:06.318Z,1.40
2022-09-25T10:19:56.184Z,1.47
2022-09-25T10:22:46.540Z,1.57
2022-09-25T10:25:38.476Z,1.30
2022-09-25T10:28:31.171Z,1.27
2022-09-25T10:31:19.628Z,1.13
2022-09-25T10:34:22.166Z,1.30
2022-09-25T10:37:21.740Z,1.47
2022-09-25T10:40:22.957Z,1.20
2022-09-25T10:43:18.506Z,1.27
2022-09-25T10:46:13.480Z,1.13
2022-09-25T10:49:33.533Z,1.00
2022-09-25T10:52:21.279Z,1.00
2022-09-25T10:55:16.394Z,1.17
2022-09-25T10:58:15.044Z,1.10
2022-09-25T11:01:03.537Z,1.10
2022-09-25T11:03:55.157Z,0.93
2022-09-25T11:06:47.467Z,1.33
2022-09-25T11:09:36.714Z,0.87
2022-09-25T11:12:26.973Z,0.70
2022-09-25T11:15:19.626Z,1.07
2022-09-25T11:18:07.178Z,0.80
2022-09-25T11:21:02.635Z,1.10
2022-09-25T11:24:09.715Z,1.20
2022-09-25T11:27:04.139Z,1.00
2022-09-25T11:30:03.789Z,1.07
2022-09-25T11:32:55.497Z,0.90
2022-09-25T11:35:48.073Z,1.07
2022-09-25T11:38:59.899Z,1.17
2022-09-25T11:41:51.722Z,1.40
2022-09-25T11:44:43.283Z,1.30
2022-09-25T11:47:37.116Z,1.23
2022-09-25T11:50:31.804Z,1.13
2022-09-25T11:53:28.401Z,1.20
2022-09-25T11:56:25.490Z,1.03
2022-09-25T11:59:29.160Z,1.00
2022-09-25T12:02:30.849Z,0.97
2022-09-25T12:05:38.794Z,1.27
2022-09-25T12:08:42.244Z,0.90
2022-09-25T12:11:38.108Z,0.90
2022-09-25T12:14:32.670Z,0.90
2022-09-25T12:17:25.884Z,1.20
2022-09-25T12:20:21.590Z,1.00
2022-09-25T12:23:18.628Z,1.13
2022-09-25T12:26:18.628Z,1.37
2022-09-25T12:29:19.587Z,1.07
2022-09-25T12:32:18.460Z,1.40
2022-09-25T12:35:18.044Z,1.17
2022-09-25T12:38:11.091Z,1.30
2022-09-25T12:41:04.352Z,1.13
2022-09-25T12:43:55.384Z,1.40
2022-09-25T12:46:46.217Z,1.33
2022-09-25T12:49:37.959Z,1.10
2022-09-25T12:52:29.135Z,1.23
2022-09-25T12:55:22.321Z,1.33
2022-09-25T12:58:18.251Z,1.50
2022-09-25T13:01:11.064Z,1.50
2022-09-25T13:04:21.437Z,1.60
2022-09-25T13:07:18.132Z,1.20
2022-09-25T13:10:14.567Z,1.10
2022-09-25T13:13:09.343Z,1.07
2022-09-25T13:16:00.404Z,0.87
2022-09-25T13:18:49.461Z,1.20
2022-09-25T13:21:37.802Z,1.03
2022-09-25T13:24:25.724Z,1.43
2022-09-25T13:27:18.963Z,1.30
2022-09-25T13:30:06.907Z,1.53
2022-09-25T13:32:56.017Z,1.43
2022-09-25T13:35:42.465Z,1.87
2022-09-25T13:38:43.552Z,1.33
2022-09-25T13:41:31.949Z,1.20
2022-09-25T13:44:49.788Z,1.20
2022-09-25T13:48:07.838Z,1.60
2022-09-25T13:51:35.701Z,1.00
2022-09-25T13:54:29.272Z,1.00
2022-09-25T13:57:16.552Z,1.07
2022-09-25T14:00:06.035Z,0.93
2022-09-25T14:02:58.672Z,1.10
2022-09-25T14:05:45.250Z,1.13
2022-09-25T14:08:34.734Z,0.73
2022-09-25T14:11:26.985Z,0.90
2022-09-25T14:14:22.695Z,0.60
2022-09-25T14:17:15.912Z,1.50
2022-09-25T14:20:06.494Z,0.93
2022-09-25T14:22:56.039Z,0.70
2022-09-25T14:25:46.983Z,0.90
2022-09-25T14:28:35.548Z,0.93
2022-09-25T14:31:40.354Z,0.87
2022-09-25T14:34:58.364Z,1.40
2022-09-25T14:37:59.191Z,1.10
2022-09-25T14:40:58.168Z,1.10
2022-09-25T14:44:01.156Z,0.90
2022-09-25T14:46:50.721Z,1.03
2022-09-25T14:49:41.839Z,0.83
2022-09-25T14:52:34.756Z,1.00
2022-09-25T14:55:24.570Z,0.63
2022-09-25T14:58:17.573Z,0.93
2022-09-25T15:01:14.903Z,0.70
2022-09-25T15:04:05.226Z,0.80
2022-09-25T15:07:03.408Z,0.83
2022-09-25T15:09:55.187Z,0.60
2022-09-25T15:12:46.411Z,0.73
2022-09-25T15:15:35.202Z,0.80
2022-09-25T15:18:20.700Z,0.90
2022-09-25T15:21:10.652Z,0.70
2022-09-25T15:24:02.338Z,0.73
2022-09-25T15:26:53.843Z,1.03
2022-09-25T15:29:46.354Z,0.60
2022-09-25T15:32:39.788Z,0.70
2022-09-25T15:35:28.046Z,0.80
2022-09-25T15:38:15.432Z,0.83
2022-09-25T15:41:02.476Z,0.80
2022-09-25T15:43:51.188Z,0.83
2022-09-25T15:46:40.081Z,0.90
2022-09-25T15:49:32.760Z,0.90
2022-09-25T15:52:27.289Z,0.90
2022-09-25T15:55:15.556Z,1.10
2022-09-25T15:58:14.561Z,0.90
2022-09-25T16:01:21.316Z,1.20
2022-09-25T16:04:27.624Z,0.97
2022-09-25T16:07:30.621Z,0.83
2022-09-25T16:10:34.436Z,0.87
2022-09-25T16:13:22.799Z,0.70
2022-09-25T16:16:22.342Z,1.13
2022-09-25T16:19:27.743Z,0.93
2022-09-25T16:22:23.297Z,1.13
2022-09-25T16:25:24.672Z,0.90
2022-09-25T16:28:19.525Z,1.10
2022-09-25T16:31:08.785Z,0.80
2022-09-25T16:33:57.384Z,1.00
2022-09-25T16:36:45.602Z,1.10
2022-09-25T16:39:36.669Z,0.93
2022-09-25T16:42:40.292Z,1.00
2022-09-25T16:45:29.694Z,0.83
2022-09-25T16:48:31.593Z,1.20
2022-09-25T16:51:22.546Z,1.00
2022-09-25T16:54:11.316Z,0.80
2022-09-25T16:56:58.940Z,0.97
2022-09-25T16:59:47.176Z,0.90
2022-09-25T17:02:37.562Z,1.00
2022-09-25T17:05:26.845Z,1.23
2022-09-25T17:08:17.835Z,1.60
2022-09-25T17:11:05.437Z,1.77
2022-09-25T17:13:52.676Z,1.67
2022-09-25T17:16:40.732Z,22.90
2022-09-25T17:19:27.807Z,12.47
2022-09-25T17:22:14.565Z,8.17
2022-09-25T17:25:03.724Z,3.70
2022-09-25T17:27:50.270Z,3.27
2022-09-25T17:30:37.088Z,1.90
2022-09-25T17:33:24.916Z,1.80
2022-09-25T17:36:13.172Z,1.90
2022-09-25T17:38:59.447Z,2.00
2022-09-25T17:41:45.969Z,2.13
2022-09-25T17:44:32.368Z,2.23
2022-09-25T17:47:19.209Z,1.80
2022-09-25T17:50:07.816Z,1.47
2022-09-25T17:52:54.644Z,1.90
2022-09-25T17:55:41.185Z,1.63
2022-09-25T17:58:28.836Z,2.03
2022-09-25T18:01:21.822Z,2.30
2022-09-25T18:04:19.211Z,1.23
2022-09-25T18:07:07.206Z,0.93
2022-09-25T18:09:53.825Z,1.30
2022-09-25T18:12:40.300Z,1.30
2022-09-25T18:15:27.518Z,1.60
2022-09-25T18:18:14.098Z,0.90
2022-09-25T18:21:17.819Z,1.30
2022-09-25T18:24:06.127Z,1.60
2022-09-25T18:26:54.332Z,1.67
2022-09-25T18:29:40.824Z,1.27
2022-09-25T18:32:27.464Z,2.30
2022-09-25T18:35:16.031Z,2.63
2022-09-25T18:38:02.466Z,2.63
2022-09-25T18:40:50.316Z,3.23
2022-09-25T18:43:37.012Z,3.40
2022-09-25T18:46:23.299Z,3.17
2022-09-25T18:49:10.416Z,2.47
2022-09-25T18:51:57.141Z,2.20
2022-09-25T18:54:43.712Z,1.90
2022-09-25T18:57:31.829Z,2.30
2022-09-25T19:00:18.722Z,3.13
2022-09-25T19:03:05.876Z,4.40
2022-09-25T19:05:59.866Z,2.70
2022-09-25T19:08:51.489Z,2.77
2022-09-25T19:11:37.904Z,2.10
2022-09-25T19:14:25.785Z,2.50
2022-09-25T19:17:12.824Z,1.93
2022-09-25T19:19:59.364Z,2.40
2022-09-25T19:22:45.849Z,2.33
2022-09-25T19:25:32.291Z,2.30
2022-09-25T19:28:18.627Z,2.10
2022-09-25T19:31:08.254Z,2.03
2022-09-25T19:33:56.193Z,2.50
2022-09-25T19:36:42.599Z,2.33
2022-09-25T19:39:29.306Z,2.60
2022-09-25T19:42:15.882Z,2.63
2022-09-25T19:45:02.232Z,2.37
2022-09-25T19:47:49.934Z,3.30
2022-09-25T19:50:36.312Z,2.83
2022-09-25T19:53:22.636Z,3.00
2022-09-25T19:56:09.912Z,2.97
2022-09-25T19:58:56.859Z,3.00
2022-09-25T20:01:44.002Z,3.00
2022-09-25T20:04:31.919Z,3.17
2022-09-25T20:07:18.825Z,2.90
2022-09-25T20:10:06.175Z,2.80
2022-09-25T20:12:52.775Z,2.30
2022-09-25T20:15:39.789Z,2.33
2022-09-25T20:18:26.699Z,2.60
2022-09-25T20:21:17.434Z,2.20
2022-09-25T20:24:06.108Z,2.20
2022-09-25T20:26:53.287Z,1.93
2022-09-25T20:29:39.919Z,1.93
2022-09-25T20:32:26.207Z,2.10
2022-09-25T20:35:12.884Z,1.70
2022-09-25T20:38:00.641Z,1.67
2022-09-25T20:40:47.108Z,2.20
2022-09-25T20:43:34.998Z,1.90
2022-09-25T20:46:21.974Z,2.00
2022-09-25T20:49:10.734Z,1.60
2022-09-25T20:51:57.188Z,1.90
2022-09-25T20:54:44.951Z,2.03
2022-09-25T20:57:33.777Z,1.53
2022-09-25T21:00:20.247Z,1.90
2022-09-25T21:03:06.735Z,1.80
2022-09-25T21:05:53.630Z,1.57
2022-09-25T21:08:40.103Z,1.40
2022-09-25T21:11:30.119Z,2.00
2022-09-25T21:14:19.628Z,1.70
2022-09-25T21:17:06.613Z,1.67
2022-09-25T21:19:54.387Z,1.90
2022-09-25T21:22:42.317Z,1.80
2022-09-25T21:25:29.508Z,1.70
2022-09-25T21:28:17.085Z,1.47
2022-09-25T21:31:05.655Z,1.80
2022-09-25T21:33:53.032Z,1.77
2022-09-25T21:36:39.909Z,1.57
2022-09-25T21:39:26.599Z,1.67
2022-09-25T21:42:12.932Z,1.70
2022-09-25T21:45:01.158Z,1.73
2022-09-25T21:47:50.396Z,1.70
2022-09-25T21:50:36.879Z,1.53
2022-09-25T21:53:23.759Z,1.97
2022-09-25T21:56:12.478Z,1.77
2022-09-25T21:59:08.407Z,1.73
2022-09-25T22:01:58.580Z,1.70
2022-09-25T22:04:45.547Z,1.60
2022-09-25T22:07:32.131Z,1.70
2022-09-25T22:10:18.732Z,1.60
2022-09-25T22:13:05.192Z,1.63
2022-09-25T22:15:51.617Z,1.37
2022-09-25T22:18:44.500Z,1.63
2022-09-25T22:21:32.875Z,1.50
2022-09-25T22:24:19.994Z,1.73
2022-09-25T22:27:06.481Z,1.73
2022-09-25T22:29:52.783Z,1.50
2022-09-25T22:32:39.279Z,1.93
2022-09-25T22:35:27.139Z,2.20
2022-09-25T22:38:13.442Z,1.90
2022-09-25T22:41:04.382Z,1.80
2022-09-25T22:43:52.743Z,2.43
2022-09-25T22:46:39.409Z,1.90
2022-09-25T22:49:25.937Z,1.90
2022-09-25T22:52:13.658Z,1.90
2022-09-25T22:55:00.112Z,2.30
2022-09-25T22:57:46.443Z,2.40
2022-09-25T23:00:33.190Z,2.30
2022-09-25T23:03:22.440Z,2.33
2022-09-25T23:06:10.881Z,2.83
2022-09-25T23:09:00.118Z,2.47
2022-09-25T23:11:47.189Z,2.30
2022-09-25T23:14:33.631Z,2.10
2022-09-25T23:17:20.143Z,2.43
2022-09-25T23:20:07.597Z,2.07
2022-09-25T23:22:54.297Z,2.10
2022-09-25T23:25:42.359Z,2.00
2022-09-25T23:28:28.664Z,2.07
2022-09-25T23:31:17.400Z,2.20
2022-09-25T23:34:04.553Z,2.33
2022-09-25T23:36:51.194Z,2.03
2022-09-25T23:39:37.704Z,2.37
2022-09-25T23:42:25.432Z,2.20
2022-09-25T23:45:12.913Z,2.67
2022-09-25T23:47:59.284Z,3.07
2022-09-25T23:50:45.659Z,2.60
2022-09-25T23:53:32.267Z,2.73
2022-09-25T23:56:21.091Z,2.33
2022-09-25T23:59:08.991Z,2.73
